sensor_id;sensor_type;location;lat;lon;timestamp;temperature;humidity
67603;DHT22;54417;47.454;18.918;2022-10-16T00:00:52;14.30;75.65
67603;DHT22;54417;47.454;18.918;2022-10-16T00:06:17;14.24;75.76
67603;DHT22;54417;47.454;18.918;2022-10-16T00:11:41;14.14;75.73
67603;DHT22;54417;47.454;18.918;2022-10-16T00:17:06;14.01;75.88
67603;DHT22;54417;47.454;18.918;2022-10-16T00:22:30;13.83;76.56
67603;DHT22;54417;47.454;18.918;2022-10-16T00:27:53;13.68;76.89
67603;DHT22;54417;47.454;18.918;2022-10-16T00:33:18;13.72;76.32
67603;DHT22;54417;47.454;18.918;2022-10-16T00:38:42;13.48;77.11
67603;DHT22;54417;47.454;18.918;2022-10-16T00:50:06;13.11;78.58
67603;DHT22;54417;47.454;18.918;2022-10-16T00:55:30;12.97;78.85
67603;DHT22;54417;47.454;18.918;2022-10-16T01:00:54;12.96;78.15
67603;DHT22;54417;47.454;18.918;2022-10-16T01:06:36;13.03;78.04
67603;DHT22;54417;47.454;18.918;2022-10-16T01:12:06;13.04;77.75
67603;DHT22;54417;47.454;18.918;2022-10-16T01:17:35;12.79;78.73
67603;DHT22;54417;47.454;18.918;2022-10-16T01:23:10;12.58;79.30
67603;DHT22;54417;47.454;18.918;2022-10-16T01:28:43;12.29;80.25
67603;DHT22;54417;47.454;18.918;2022-10-16T01:34:13;12.16;80.69
67603;DHT22;54417;47.454;18.918;2022-10-16T01:39:39;11.94;81.61
67603;DHT22;54417;47.454;18.918;2022-10-16T01:45:07;11.76;82.00
67603;DHT22;54417;47.454;18.918;2022-10-16T01:50:36;11.66;82.32
67603;DHT22;54417;47.454;18.918;2022-10-16T01:56:02;11.51;82.90
67603;DHT22;54417;47.454;18.918;2022-10-16T02:01:31;11.40;82.93
67603;DHT22;54417;47.454;18.918;2022-10-16T02:06:55;11.39;82.77
67603;DHT22;54417;47.454;18.918;2022-10-16T02:12:22;11.58;81.60
67603;DHT22;54417;47.454;18.918;2022-10-16T02:17:48;11.59;81.26
67603;DHT22;54417;47.454;18.918;2022-10-16T02:23:19;11.43;82.14
67603;DHT22;54417;47.454;18.918;2022-10-16T02:28:45;11.28;82.52
67603;DHT22;54417;47.454;18.918;2022-10-16T02:34:12;11.19;82.38
67603;DHT22;54417;47.454;18.918;2022-10-16T02:39:38;10.91;82.91
67603;DHT22;54417;47.454;18.918;2022-10-16T02:45:03;10.70;83.84
67603;DHT22;54417;47.454;18.918;2022-10-16T02:50:28;10.49;84.54
67603;DHT22;54417;47.454;18.918;2022-10-16T02:55:51;10.25;85.19
67603;DHT22;54417;47.454;18.918;2022-10-16T03:01:15;10.15;85.80
67603;DHT22;54417;47.454;18.918;2022-10-16T03:06:40;10.08;85.99
67603;DHT22;54417;47.454;18.918;2022-10-16T03:12:04;9.98;86.25
67603;DHT22;54417;47.454;18.918;2022-10-16T03:17:28;9.88;86.42
67603;DHT22;54417;47.454;18.918;2022-10-16T03:22:53;9.75;86.64
67603;DHT22;54417;47.454;18.918;2022-10-16T03:28:17;9.55;86.90
67603;DHT22;54417;47.454;18.918;2022-10-16T03:33:40;9.33;87.38
67603;DHT22;54417;47.454;18.918;2022-10-16T03:39:05;9.29;87.36
67603;DHT22;54417;47.454;18.918;2022-10-16T03:44:30;9.20;87.47
67603;DHT22;54417;47.454;18.918;2022-10-16T03:49:53;9.12;87.76
67603;DHT22;54417;47.454;18.918;2022-10-16T03:55:18;9.13;88.05
67603;DHT22;54417;47.454;18.918;2022-10-16T04:00:42;8.93;88.17
67603;DHT22;54417;47.454;18.918;2022-10-16T04:06:06;8.79;88.31
67603;DHT22;54417;47.454;18.918;2022-10-16T04:11:32;8.61;88.83
67603;DHT22;54417;47.454;18.918;2022-10-16T04:16:56;8.62;89.10
67603;DHT22;54417;47.454;18.918;2022-10-16T04:22:19;8.60;88.86
67603;DHT22;54417;47.454;18.918;2022-10-16T04:27:44;8.54;88.82
67603;DHT22;54417;47.454;18.918;2022-10-16T04:33:09;8.40;89.09
67603;DHT22;54417;47.454;18.918;2022-10-16T04:38:33;8.31;89.27
67603;DHT22;54417;47.454;18.918;2022-10-16T04:43:57;8.29;89.44
67603;DHT22;54417;47.454;18.918;2022-10-16T04:49:21;8.23;89.78
67603;DHT22;54417;47.454;18.918;2022-10-16T04:54:45;8.24;89.52
67603;DHT22;54417;47.454;18.918;2022-10-16T05:00:10;8.30;89.62
67603;DHT22;54417;47.454;18.918;2022-10-16T05:05:35;8.30;89.42
67603;DHT22;54417;47.454;18.918;2022-10-16T05:10:58;8.36;89.37
67603;DHT22;54417;47.454;18.918;2022-10-16T05:16:24;8.42;89.46
67603;DHT22;54417;47.454;18.918;2022-10-16T05:21:47;8.54;89.21
67603;DHT22;54417;47.454;18.918;2022-10-16T05:27:11;8.60;89.27
67603;DHT22;54417;47.454;18.918;2022-10-16T05:32:46;8.65;89.38
67603;DHT22;54417;47.454;18.918;2022-10-16T05:38:09;8.89;89.25
67603;DHT22;54417;47.454;18.918;2022-10-16T05:43:33;9.09;88.71
67603;DHT22;54417;47.454;18.918;2022-10-16T05:48:58;9.27;88.23
67603;DHT22;54417;47.454;18.918;2022-10-16T05:54:22;9.55;87.49
67603;DHT22;54417;47.454;18.918;2022-10-16T05:59:45;9.81;86.79
67603;DHT22;54417;47.454;18.918;2022-10-16T06:05:10;9.99;85.68
67603;DHT22;54417;47.454;18.918;2022-10-16T06:10:34;10.23;85.30
67603;DHT22;54417;47.454;18.918;2022-10-16T06:15:58;10.50;85.33
67603;DHT22;54417;47.454;18.918;2022-10-16T06:21:25;10.87;84.68
67603;DHT22;54417;47.454;18.918;2022-10-16T06:26:49;11.25;83.93
67603;DHT22;54417;47.454;18.918;2022-10-16T06:32:12;11.47;83.33
67603;DHT22;54417;47.454;18.918;2022-10-16T06:37:37;11.93;80.09
67603;DHT22;54417;47.454;18.918;2022-10-16T06:43:01;12.34;79.08
67603;DHT22;54417;47.454;18.918;2022-10-16T06:48:25;12.59;76.30
67603;DHT22;54417;47.454;18.918;2022-10-16T06:53:51;12.83;75.03
67603;DHT22;54417;47.454;18.918;2022-10-16T06:59:24;13.13;74.90
67603;DHT22;54417;47.454;18.918;2022-10-16T07:04:49;13.31;74.55
67603;DHT22;54417;47.454;18.918;2022-10-16T07:10:14;13.57;73.75
67603;DHT22;54417;47.454;18.918;2022-10-16T07:15:37;13.57;72.99
67603;DHT22;54417;47.454;18.918;2022-10-16T07:21:05;13.79;72.55
67603;DHT22;54417;47.454;18.918;2022-10-16T07:26:32;14.02;72.01
67603;DHT22;54417;47.454;18.918;2022-10-16T07:31:56;14.14;71.14
67603;DHT22;54417;47.454;18.918;2022-10-16T07:37:21;14.33;70.50
67603;DHT22;54417;47.454;18.918;2022-10-16T07:42:46;14.50;71.61
67603;DHT22;54417;47.454;18.918;2022-10-16T07:48:10;14.60;69.39
67603;DHT22;54417;47.454;18.918;2022-10-16T07:53:33;14.74;69.39
67603;DHT22;54417;47.454;18.918;2022-10-16T07:58:58;14.78;68.27
67603;DHT22;54417;47.454;18.918;2022-10-16T08:04:22;15.08;69.19
67603;DHT22;54417;47.454;18.918;2022-10-16T08:09:49;15.29;68.12
67603;DHT22;54417;47.454;18.918;2022-10-16T08:15:14;15.29;66.93
67603;DHT22;54417;47.454;18.918;2022-10-16T08:20:38;15.47;67.50
67603;DHT22;54417;47.454;18.918;2022-10-16T08:26:03;15.60;67.33
67603;DHT22;54417;47.454;18.918;2022-10-16T08:31:29;15.44;66.49
67603;DHT22;54417;47.454;18.918;2022-10-16T08:36:53;15.51;66.93
67603;DHT22;54417;47.454;18.918;2022-10-16T08:42:26;15.69;66.82
67603;DHT22;54417;47.454;18.918;2022-10-16T08:48:03;15.76;66.41
67603;DHT22;54417;47.454;18.918;2022-10-16T08:53:33;15.77;66.46
67603;DHT22;54417;47.454;18.918;2022-10-16T08:59:00;15.97;66.28
67603;DHT22;54417;47.454;18.918;2022-10-16T09:04:44;16.25;66.13
67603;DHT22;54417;47.454;18.918;2022-10-16T09:10:26;16.49;64.97
67603;DHT22;54417;47.454;18.918;2022-10-16T09:16:01;16.52;65.04
67603;DHT22;54417;47.454;18.918;2022-10-16T09:21:29;16.32;65.07
67603;DHT22;54417;47.454;18.918;2022-10-16T09:26:53;16.62;65.71
67603;DHT22;54417;47.454;18.918;2022-10-16T09:32:19;16.72;66.81
67603;DHT22;54417;47.454;18.918;2022-10-16T09:37:47;16.88;64.70
67603;DHT22;54417;47.454;18.918;2022-10-16T09:43:21;16.93;63.70
67603;DHT22;54417;47.454;18.918;2022-10-16T09:48:49;17.10;63.40
67603;DHT22;54417;47.454;18.918;2022-10-16T09:54:15;17.14;63.87
67603;DHT22;54417;47.454;18.918;2022-10-16T09:59:46;17.51;62.68
67603;DHT22;54417;47.454;18.918;2022-10-16T10:05:17;17.71;63.34
67603;DHT22;54417;47.454;18.918;2022-10-16T10:10:43;17.76;64.15
67603;DHT22;54417;47.454;18.918;2022-10-16T10:16:07;17.75;63.03
67603;DHT22;54417;47.454;18.918;2022-10-16T10:21:32;17.68;61.86
67603;DHT22;54417;47.454;18.918;2022-10-16T10:27:04;17.56;62.14
67603;DHT22;54417;47.454;18.918;2022-10-16T10:32:36;17.71;62.38
67603;DHT22;54417;47.454;18.918;2022-10-16T10:38:09;17.75;61.94
67603;DHT22;54417;47.454;18.918;2022-10-16T10:43:48;17.90;62.33
67603;DHT22;54417;47.454;18.918;2022-10-16T10:49:31;18.10;62.67
67603;DHT22;54417;47.454;18.918;2022-10-16T10:55:06;18.11;61.22
67603;DHT22;54417;47.454;18.918;2022-10-16T11:00:42;18.23;62.53
67603;DHT22;54417;47.454;18.918;2022-10-16T11:06:12;18.31;62.83
67603;DHT22;54417;47.454;18.918;2022-10-16T11:11:42;18.41;60.32
67603;DHT22;54417;47.454;18.918;2022-10-16T11:17:11;18.45;60.44
67603;DHT22;54417;47.454;18.918;2022-10-16T11:22:38;18.55;59.59
67603;DHT22;54417;47.454;18.918;2022-10-16T11:28:07;18.62;61.32
67603;DHT22;54417;47.454;18.918;2022-10-16T11:33:39;18.73;62.00
67603;DHT22;54417;47.454;18.918;2022-10-16T11:39:08;18.82;59.28
67603;DHT22;54417;47.454;18.918;2022-10-16T11:44:42;18.82;59.65
67603;DHT22;54417;47.454;18.918;2022-10-16T11:50:19;19.00;59.47
67603;DHT22;54417;47.454;18.918;2022-10-16T11:55:45;19.19;60.76
67603;DHT22;54417;47.454;18.918;2022-10-16T12:01:17;19.49;57.67
67603;DHT22;54417;47.454;18.918;2022-10-16T12:06:46;19.73;59.48
67603;DHT22;54417;47.454;18.918;2022-10-16T12:12:27;20.11;56.24
67603;DHT22;54417;47.454;18.918;2022-10-16T12:17:56;19.88;54.97
67603;DHT22;54417;47.454;18.918;2022-10-16T12:23:21;19.58;57.97
67603;DHT22;54417;47.454;18.918;2022-10-16T12:28:45;19.53;59.30
67603;DHT22;54417;47.454;18.918;2022-10-16T12:34:21;19.44;59.32
67603;DHT22;54417;47.454;18.918;2022-10-16T12:39:50;19.46;58.06
67603;DHT22;54417;47.454;18.918;2022-10-16T12:45:40;19.40;58.08
67603;DHT22;54417;47.454;18.918;2022-10-16T12:51:12;19.44;59.39
67603;DHT22;54417;47.454;18.918;2022-10-16T12:56:50;19.46;58.64
67603;DHT22;54417;47.454;18.918;2022-10-16T13:02:48;19.53;57.88
67603;DHT22;54417;47.454;18.918;2022-10-16T13:08:29;19.51;57.98
67603;DHT22;54417;47.454;18.918;2022-10-16T13:14:20;19.46;59.45
67603;DHT22;54417;47.454;18.918;2022-10-16T13:19:52;19.56;58.05
67603;DHT22;54417;47.454;18.918;2022-10-16T13:25:27;19.56;58.20
67603;DHT22;54417;47.454;18.918;2022-10-16T13:30:55;19.51;58.52
67603;DHT22;54417;47.454;18.918;2022-10-16T13:36:22;19.56;57.27
67603;DHT22;54417;47.454;18.918;2022-10-16T13:41:58;19.51;56.61
67603;DHT22;54417;47.454;18.918;2022-10-16T13:47:30;19.50;58.24
67603;DHT22;54417;47.454;18.918;2022-10-16T13:53:03;19.44;58.72
67603;DHT22;54417;47.454;18.918;2022-10-16T13:58:27;19.36;58.55
67603;DHT22;54417;47.454;18.918;2022-10-16T14:03:52;19.31;59.39
67603;DHT22;54417;47.454;18.918;2022-10-16T14:09:21;19.27;57.16
67603;DHT22;54417;47.454;18.918;2022-10-16T14:14:48;19.26;59.16
67603;DHT22;54417;47.454;18.918;2022-10-16T14:20:14;19.27;57.60
67603;DHT22;54417;47.454;18.918;2022-10-16T14:25:38;19.16;57.55
67603;DHT22;54417;47.454;18.918;2022-10-16T14:31:22;19.19;58.08
67603;DHT22;54417;47.454;18.918;2022-10-16T14:36:48;19.08;57.76
67603;DHT22;54417;47.454;18.918;2022-10-16T14:42:15;18.95;59.29
67603;DHT22;54417;47.454;18.918;2022-10-16T14:47:48;18.79;59.72
67603;DHT22;54417;47.454;18.918;2022-10-16T14:53:14;18.64;59.76
67603;DHT22;54417;47.454;18.918;2022-10-16T14:58:38;18.55;59.25
67603;DHT22;54417;47.454;18.918;2022-10-16T15:04:01;18.24;61.19
67603;DHT22;54417;47.454;18.918;2022-10-16T15:09:26;17.94;62.81
67603;DHT22;54417;47.454;18.918;2022-10-16T15:14:50;17.71;63.78
67603;DHT22;54417;47.454;18.918;2022-10-16T15:20:14;17.42;67.09
67603;DHT22;54417;47.454;18.918;2022-10-16T15:25:42;17.13;68.02
67603;DHT22;54417;47.454;18.918;2022-10-16T15:31:06;16.80;70.46
67603;DHT22;54417;47.454;18.918;2022-10-16T15:36:32;16.46;71.43
67603;DHT22;54417;47.454;18.918;2022-10-16T15:42:00;16.04;75.03
67603;DHT22;54417;47.454;18.918;2022-10-16T15:47:23;15.74;76.30
67603;DHT22;54417;47.454;18.918;2022-10-16T15:52:47;15.42;78.17
67603;DHT22;54417;47.454;18.918;2022-10-16T15:58:12;15.05;79.35
67603;DHT22;54417;47.454;18.918;2022-10-16T16:03:37;14.74;80.39
67603;DHT22;54417;47.454;18.918;2022-10-16T16:09:02;14.48;80.41
67603;DHT22;54417;47.454;18.918;2022-10-16T16:14:28;14.24;81.34
67603;DHT22;54417;47.454;18.918;2022-10-16T16:19:51;14.06;80.97
67603;DHT22;54417;47.454;18.918;2022-10-16T16:25:15;13.95;80.57
67603;DHT22;54417;47.454;18.918;2022-10-16T16:30:41;13.82;81.72
67603;DHT22;54417;47.454;18.918;2022-10-16T16:36:05;13.66;81.64
67603;DHT22;54417;47.454;18.918;2022-10-16T16:41:36;13.54;82.60
67603;DHT22;54417;47.454;18.918;2022-10-16T16:47:01;13.44;82.73
67603;DHT22;54417;47.454;18.918;2022-10-16T16:52:28;13.31;83.03
67603;DHT22;54417;47.454;18.918;2022-10-16T16:57:52;13.17;83.64
67603;DHT22;54417;47.454;18.918;2022-10-16T17:03:17;12.97;84.37
67603;DHT22;54417;47.454;18.918;2022-10-16T17:08:41;12.76;84.55
67603;DHT22;54417;47.454;18.918;2022-10-16T17:14:05;12.73;84.62
67603;DHT22;54417;47.454;18.918;2022-10-16T17:19:31;12.60;84.87
67603;DHT22;54417;47.454;18.918;2022-10-16T17:24:56;12.46;85.38
67603;DHT22;54417;47.454;18.918;2022-10-16T17:30:20;12.35;85.61
67603;DHT22;54417;47.454;18.918;2022-10-16T17:35:46;12.21;85.94
67603;DHT22;54417;47.454;18.918;2022-10-16T17:41:10;12.13;85.90
67603;DHT22;54417;47.454;18.918;2022-10-16T17:46:35;12.02;86.53
67603;DHT22;54417;47.454;18.918;2022-10-16T17:52:04;11.90;86.85
67603;DHT22;54417;47.454;18.918;2022-10-16T17:57:27;11.86;86.67
67603;DHT22;54417;47.454;18.918;2022-10-16T18:02:51;11.67;86.82
67603;DHT22;54417;47.454;18.918;2022-10-16T18:08:16;11.56;86.95
67603;DHT22;54417;47.454;18.918;2022-10-16T18:13:40;11.55;87.05
67603;DHT22;54417;47.454;18.918;2022-10-16T18:19:04;11.40;87.26
67603;DHT22;54417;47.454;18.918;2022-10-16T18:24:30;11.29;87.41
67603;DHT22;54417;47.454;18.918;2022-10-16T18:29:53;11.14;87.49
67603;DHT22;54417;47.454;18.918;2022-10-16T18:35:18;11.05;88.04
67603;DHT22;54417;47.454;18.918;2022-10-16T18:40:43;11.02;88.06
67603;DHT22;54417;47.454;18.918;2022-10-16T18:46:09;10.88;88.38
67603;DHT22;54417;47.454;18.918;2022-10-16T18:51:34;10.80;88.31
67603;DHT22;54417;47.454;18.918;2022-10-16T18:56:59;10.78;88.15
67603;DHT22;54417;47.454;18.918;2022-10-16T19:02:23;10.68;88.40
67603;DHT22;54417;47.454;18.918;2022-10-16T19:07:46;10.64;88.43
67603;DHT22;54417;47.454;18.918;2022-10-16T19:13:12;10.52;88.61
67603;DHT22;54417;47.454;18.918;2022-10-16T19:18:35;10.39;88.88
67603;DHT22;54417;47.454;18.918;2022-10-16T19:24:01;10.32;89.03
67603;DHT22;54417;47.454;18.918;2022-10-16T19:29:26;10.23;89.08
67603;DHT22;54417;47.454;18.918;2022-10-16T19:34:52;10.20;89.23
67603;DHT22;54417;47.454;18.918;2022-10-16T19:40:18;10.09;89.40
67603;DHT22;54417;47.454;18.918;2022-10-16T19:45:43;10.10;89.56
67603;DHT22;54417;47.454;18.918;2022-10-16T19:51:10;10.05;89.60
67603;DHT22;54417;47.454;18.918;2022-10-16T19:56:35;9.96;89.48
67603;DHT22;54417;47.454;18.918;2022-10-16T20:02:00;9.89;89.82
67603;DHT22;54417;47.454;18.918;2022-10-16T20:07:24;9.87;89.73
67603;DHT22;54417;47.454;18.918;2022-10-16T20:12:52;9.78;89.72
67603;DHT22;54417;47.454;18.918;2022-10-16T20:18:17;9.77;89.63
67603;DHT22;54417;47.454;18.918;2022-10-16T20:23:41;9.75;89.52
67603;DHT22;54417;47.454;18.918;2022-10-16T20:29:06;9.67;89.60
67603;DHT22;54417;47.454;18.918;2022-10-16T20:34:31;9.64;89.57
67603;DHT22;54417;47.454;18.918;2022-10-16T20:39:55;9.61;89.51
67603;DHT22;54417;47.454;18.918;2022-10-16T20:45:19;9.60;89.45
67603;DHT22;54417;47.454;18.918;2022-10-16T20:50:44;9.48;89.30
67603;DHT22;54417;47.454;18.918;2022-10-16T20:56:10;9.43;89.49
67603;DHT22;54417;47.454;18.918;2022-10-16T21:01:34;9.30;89.77
67603;DHT22;54417;47.454;18.918;2022-10-16T21:07:00;9.23;90.03
67603;DHT22;54417;47.454;18.918;2022-10-16T21:12:24;9.19;90.27
67603;DHT22;54417;47.454;18.918;2022-10-16T21:17:48;9.16;90.05
67603;DHT22;54417;47.454;18.918;2022-10-16T21:23:13;9.05;90.41
67603;DHT22;54417;47.454;18.918;2022-10-16T21:28:37;9.00;90.55
67603;DHT22;54417;47.454;18.918;2022-10-16T21:34:04;8.93;90.57
67603;DHT22;54417;47.454;18.918;2022-10-16T21:39:29;8.88;90.56
67603;DHT22;54417;47.454;18.918;2022-10-16T21:44:53;8.82;90.72
67603;DHT22;54417;47.454;18.918;2022-10-16T21:50:17;8.79;90.71
67603;DHT22;54417;47.454;18.918;2022-10-16T21:55:42;8.73;91.05
67603;DHT22;54417;47.454;18.918;2022-10-16T22:01:11;8.72;91.04
67603;DHT22;54417;47.454;18.918;2022-10-16T22:06:37;8.79;91.21
67603;DHT22;54417;47.454;18.918;2022-10-16T22:12:03;8.72;91.04
67603;DHT22;54417;47.454;18.918;2022-10-16T22:17:27;8.69;90.99
67603;DHT22;54417;47.454;18.918;2022-10-16T22:22:51;8.61;91.14
67603;DHT22;54417;47.454;18.918;2022-10-16T22:28:17;8.51;90.95
67603;DHT22;54417;47.454;18.918;2022-10-16T22:33:40;8.52;90.72
67603;DHT22;54417;47.454;18.918;2022-10-16T22:39:04;8.41;90.89
67603;DHT22;54417;47.454;18.918;2022-10-16T22:44:30;8.38;90.81
67603;DHT22;54417;47.454;18.918;2022-10-16T22:49:53;8.34;90.82
67603;DHT22;54417;47.454;18.918;2022-10-16T22:55:17;8.29;90.97
67603;DHT22;54417;47.454;18.918;2022-10-16T23:00:43;8.17;91.29
67603;DHT22;54417;47.454;18.918;2022-10-16T23:06:06;8.19;91.42
67603;DHT22;54417;47.454;18.918;2022-10-16T23:11:30;8.21;91.17
67603;DHT22;54417;47.454;18.918;2022-10-16T23:16:56;8.13;90.95
67603;DHT22;54417;47.454;18.918;2022-10-16T23:22:20;8.07;90.89
67603;DHT22;54417;47.454;18.918;2022-10-16T23:27:45;7.99;90.85
67603;DHT22;54417;47.454;18.918;2022-10-16T23:33:10;7.87;91.35
67603;DHT22;54417;47.454;18.918;2022-10-16T23:38:34;7.83;91.61
67603;DHT22;54417;47.454;18.918;2022-10-16T23:43:58;7.78;91.59
67603;DHT22;54417;47.454;18.918;2022-10-16T23:49:23;7.79;91.47
67603;DHT22;54417;47.454;18.918;2022-10-16T23:54:46;7.78;91.46
